createdAt,value
2019-02-12T00:01:05.085Z,77.00
2019-02-12T00:03:34.233Z,76.80
2019-02-12T00:06:03.468Z,76.80
2019-02-12T00:08:32.661Z,76.70
2019-02-12T00:11:01.832Z,77.10
2019-02-12T00:13:30.976Z,77.00
2019-02-12T00:16:00.302Z,76.70
2019-02-12T00:18:29.476Z,76.60
2019-02-12T00:20:58.634Z,76.40
2019-02-12T00:23:27.878Z,76.50
2019-02-12T00:25:57.032Z,76.60
2019-02-12T00:28:26.272Z,76.50
2019-02-12T00:30:55.461Z,76.40
2019-02-12T00:33:24.601Z,76.40
2019-02-12T00:35:53.743Z,76.90
2019-02-12T00:38:22.916Z,76.70
2019-02-12T00:40:52.071Z,76.90
2019-02-12T00:43:21.212Z,76.90
2019-02-12T00:45:50.364Z,76.70
2019-02-12T00:48:19.609Z,77.30
2019-02-12T00:50:48.749Z,77.00
2019-02-12T00:53:17.913Z,77.10
2019-02-12T00:55:47.420Z,76.80
2019-02-12T00:58:16.570Z,77.20
2019-02-12T01:00:45.729Z,77.10
2019-02-12T01:03:15.088Z,77.10
2019-02-12T01:05:44.565Z,77.60
2019-02-12T01:08:13.694Z,77.70
2019-02-12T01:10:42.917Z,77.80
2019-02-12T01:13:12.093Z,77.80
2019-02-12T01:15:41.240Z,77.50
2019-02-12T01:18:10.531Z,77.90
2019-02-12T01:20:39.811Z,77.80
2019-02-12T01:23:09.120Z,77.70
2019-02-12T01:25:38.282Z,77.80
2019-02-12T01:28:07.456Z,77.90
2019-02-12T01:30:36.656Z,79.20
2019-02-12T01:33:05.789Z,78.60
2019-02-12T01:35:34.956Z,79.10
2019-02-12T01:38:04.129Z,79.20
2019-02-12T01:40:33.364Z,79.10
2019-02-12T01:43:02.846Z,79.40
2019-02-12T01:45:32.016Z,79.50
2019-02-12T01:48:01.251Z,79.70
2019-02-12T01:50:30.439Z,79.40
2019-02-12T01:52:59.577Z,79.40
2019-02-12T01:55:28.762Z,79.20
2019-02-12T01:57:57.913Z,79.40
2019-02-12T02:00:27.053Z,79.40
2019-02-12T02:02:56.361Z,79.60
2019-02-12T02:05:25.685Z,79.40
2019-02-12T02:07:54.892Z,79.50
2019-02-12T02:10:24.072Z,79.60
2019-02-12T02:12:53.288Z,79.60
2019-02-12T02:15:22.552Z,79.70
2019-02-12T02:17:51.717Z,79.90
2019-02-12T02:20:20.941Z,79.60
2019-02-12T02:22:50.127Z,79.20
2019-02-12T02:25:19.333Z,79.40
2019-02-12T02:27:48.612Z,79.10
2019-02-12T02:30:17.946Z,78.90
2019-02-12T02:32:47.106Z,79.30
2019-02-12T02:35:16.298Z,79.40
2019-02-12T02:37:45.531Z,79.30
2019-02-12T02:40:14.672Z,79.50
2019-02-12T02:42:43.941Z,79.70
2019-02-12T02:45:13.648Z,79.70
2019-02-12T02:47:42.844Z,79.70
2019-02-12T02:50:11.993Z,79.70
2019-02-12T02:52:44.365Z,79.60
2019-02-12T02:55:13.732Z,79.40
2019-02-12T02:57:43.371Z,79.50
2019-02-12T03:00:13.113Z,79.30
2019-02-12T03:02:42.537Z,79.50
2019-02-12T03:05:11.952Z,79.30
2019-02-12T03:07:41.122Z,79.30
2019-02-12T03:10:10.516Z,79.50
2019-02-12T03:12:39.756Z,79.60
2019-02-12T03:15:10.245Z,79.70
2019-02-12T03:17:39.400Z,79.90
2019-02-12T03:20:10.927Z,79.60
2019-02-12T03:22:40.243Z,79.70
2019-02-12T03:25:10.012Z,80.00
2019-02-12T03:27:39.279Z,79.50
2019-02-12T03:30:09.428Z,79.70
2019-02-12T03:32:38.598Z,80.40
2019-02-12T03:35:08.407Z,79.80
2019-02-12T03:37:37.547Z,80.40
2019-02-12T03:40:08.073Z,79.40
2019-02-12T03:42:37.219Z,79.30
2019-02-12T03:45:07.882Z,79.30
2019-02-12T03:47:37.329Z,79.10
2019-02-12T03:50:07.598Z,79.00
2019-02-12T03:52:36.770Z,79.10
2019-02-12T03:55:06.617Z,78.70
2019-02-12T03:57:35.790Z,78.70
2019-02-12T04:00:05.924Z,78.70
2019-02-12T04:02:35.097Z,78.50
2019-02-12T04:05:04.472Z,78.70
2019-02-12T04:07:33.641Z,78.70
2019-02-12T04:10:03.060Z,78.90
2019-02-12T04:12:32.205Z,78.70
2019-02-12T04:15:01.361Z,78.70
2019-02-12T04:17:30.685Z,78.50
2019-02-12T04:19:59.851Z,78.40
2019-02-12T04:22:29.038Z,78.10
2019-02-12T04:24:58.365Z,78.20
2019-02-12T04:27:27.523Z,78.00
2019-02-12T04:29:56.680Z,78.20
2019-02-12T04:32:25.870Z,78.90
2019-02-12T04:34:55.021Z,78.00
2019-02-12T04:37:24.242Z,77.80
2019-02-12T04:39:53.388Z,77.90
2019-02-12T04:42:22.558Z,78.00
2019-02-12T04:44:51.701Z,78.00
2019-02-12T04:47:20.852Z,78.00
2019-02-12T04:49:52.259Z,77.90
2019-02-12T04:52:21.425Z,77.90
2019-02-12T04:54:50.969Z,78.20
2019-02-12T04:57:39.300Z,78.40
2019-02-12T05:00:12.453Z,78.60
2019-02-12T05:02:41.733Z,78.70
2019-02-12T05:05:11.284Z,78.60
2019-02-12T05:07:40.645Z,78.80
2019-02-12T05:10:11.314Z,78.70
2019-02-12T05:12:40.469Z,78.60
2019-02-12T05:15:10.090Z,78.70
2019-02-12T05:17:39.357Z,78.60
2019-02-12T05:20:10.888Z,78.60
2019-02-12T05:22:43.490Z,78.80
2019-02-12T05:25:11.367Z,78.60
2019-02-12T05:27:40.538Z,79.30
2019-02-12T05:30:10.635Z,79.30
2019-02-12T05:32:39.786Z,79.20
2019-02-12T05:35:08.926Z,78.90
2019-02-12T05:37:38.063Z,79.30
2019-02-12T05:40:07.631Z,78.90
2019-02-12T05:42:36.788Z,78.90
2019-02-12T05:45:07.134Z,79.10
2019-02-12T05:47:36.281Z,78.90
2019-02-12T05:50:06.861Z,79.20
2019-02-12T05:52:36.021Z,79.60
2019-02-12T05:55:08.258Z,78.70
2019-02-12T05:57:37.413Z,78.70
2019-02-12T06:00:09.443Z,78.70
2019-02-12T06:02:38.605Z,78.10
2019-02-12T06:05:08.257Z,77.90
2019-02-12T06:07:37.404Z,78.50
2019-02-12T06:10:08.056Z,78.10
2019-02-12T06:12:37.309Z,78.30
2019-02-12T06:15:06.578Z,78.10
2019-02-12T06:17:35.809Z,78.20
2019-02-12T06:20:05.400Z,78.60
2019-02-12T06:22:34.591Z,78.70
2019-02-12T06:25:03.786Z,78.90
2019-02-12T06:27:32.998Z,78.90
2019-02-12T06:30:02.630Z,78.60
2019-02-12T06:32:31.891Z,79.00
2019-02-12T06:35:01.066Z,79.10
2019-02-12T06:37:30.215Z,79.20
2019-02-12T06:39:59.356Z,78.90
2019-02-12T06:42:28.750Z,78.60
2019-02-12T06:44:57.968Z,78.70
2019-02-12T06:47:27.146Z,78.20
2019-02-12T06:49:56.272Z,78.10
2019-02-12T06:52:25.430Z,78.10
2019-02-12T06:54:54.633Z,78.40
2019-02-12T06:57:23.839Z,78.00
2019-02-12T06:59:52.988Z,78.20
2019-02-12T07:02:58.032Z,78.40
2019-02-12T07:05:27.168Z,78.50
2019-02-12T07:08:45.515Z,78.10
2019-02-12T07:11:52.064Z,78.20
2019-02-12T07:14:39.097Z,78.20
2019-02-12T07:17:43.212Z,78.50
2019-02-12T07:20:45.508Z,77.40
2019-02-12T07:24:12.945Z,77.00
2019-02-12T07:27:31.764Z,76.90
2019-02-12T07:30:25.995Z,76.50
2019-02-12T07:33:51.073Z,76.20
2019-02-12T07:36:41.798Z,76.30
2019-02-12T07:39:50.754Z,76.70
2019-02-12T07:42:52.972Z,76.30
2019-02-12T07:45:46.972Z,76.40
2019-02-12T07:48:54.401Z,76.70
2019-02-12T07:52:00.402Z,77.00
2019-02-12T07:54:57.225Z,77.20
2019-02-12T07:58:09.447Z,77.40
2019-02-12T08:01:00.213Z,76.90
2019-02-12T08:04:23.268Z,76.80
2019-02-12T08:07:12.935Z,77.00
2019-02-12T08:10:22.434Z,76.90
2019-02-12T08:13:44.975Z,76.50
2019-02-12T08:16:38.105Z,76.40
2019-02-12T08:19:46.675Z,76.00
2019-02-12T08:22:59.986Z,76.10
2019-02-12T08:25:55.770Z,75.70
2019-02-12T08:28:48.381Z,75.10
2019-02-12T08:31:47.972Z,75.20
2019-02-12T08:34:48.536Z,75.60
2019-02-12T08:37:44.469Z,74.40
2019-02-12T08:40:51.845Z,72.80
2019-02-12T08:43:56.804Z,71.70
2019-02-12T08:46:50.563Z,71.30
2019-02-12T08:50:18.268Z,70.70
2019-02-12T08:53:01.392Z,65.40
2019-02-12T08:56:18.809Z,63.70
2019-02-12T08:59:08.821Z,64.80
2019-02-12T09:02:04.235Z,64.50
2019-02-12T09:05:11.550Z,62.60
2019-02-12T09:08:06.172Z,62.70
2019-02-12T09:11:07.518Z,63.10
2019-02-12T09:14:15.256Z,62.30
2019-02-12T09:17:43.829Z,63.20
2019-02-12T09:20:38.941Z,62.80
2019-02-12T09:23:59.844Z,62.90
2019-02-12T09:27:09.611Z,63.10
2019-02-12T09:29:47.216Z,62.90
2019-02-12T09:32:58.916Z,61.10
2019-02-12T09:35:39.228Z,60.60
2019-02-12T09:38:48.021Z,58.10
2019-02-12T09:41:21.965Z,58.40
2019-02-12T09:44:41.054Z,56.60
2019-02-12T09:47:48.609Z,55.90
2019-02-12T09:51:03.701Z,55.70
2019-02-12T09:54:14.172Z,55.60
2019-02-12T09:57:16.882Z,55.50
2019-02-12T10:00:08.248Z,55.50
2019-02-12T10:03:25.888Z,54.10
2019-02-12T10:06:11.157Z,54.90
2019-02-12T10:09:05.741Z,53.40
2019-02-12T10:12:04.971Z,54.70
2019-02-12T10:15:15.554Z,56.10
2019-02-12T10:18:39.945Z,56.80
2019-02-12T10:21:43.592Z,56.90
2019-02-12T10:24:59.482Z,56.20
2019-02-12T10:28:24.811Z,55.40
2019-02-12T10:31:10.116Z,55.00
2019-02-12T10:33:39.353Z,54.30
2019-02-12T10:36:08.785Z,54.40
2019-02-12T10:38:37.952Z,54.20
2019-02-12T10:41:07.126Z,54.20
2019-02-12T10:43:36.293Z,54.70
2019-02-12T10:46:05.754Z,55.10
2019-02-12T10:48:34.878Z,54.90
2019-02-12T10:51:04.097Z,53.40
2019-02-12T10:53:33.339Z,52.20
2019-02-12T10:56:02.540Z,50.90
2019-02-12T10:58:31.873Z,51.10
2019-02-12T11:01:01.019Z,50.70
2019-02-12T11:03:30.421Z,50.00
2019-02-12T11:05:59.591Z,50.30
2019-02-12T11:08:28.728Z,49.20
2019-02-12T11:10:57.984Z,48.10
2019-02-12T11:13:27.160Z,46.50
2019-02-12T11:15:56.338Z,47.80
2019-02-12T11:18:25.557Z,49.20
2019-02-12T11:20:54.892Z,48.60
2019-02-12T11:23:24.056Z,48.30
2019-02-12T11:25:53.200Z,48.30
2019-02-12T11:28:22.566Z,47.10
2019-02-12T11:30:52.184Z,48.20
2019-02-12T11:33:21.641Z,49.50
2019-02-12T11:35:50.849Z,48.90
2019-02-12T11:38:19.995Z,49.90
2019-02-12T11:40:49.152Z,50.30
2019-02-12T11:43:18.340Z,50.70
2019-02-12T11:45:47.575Z,53.60
2019-02-12T11:48:17.905Z,56.20
2019-02-12T11:50:47.476Z,56.40
2019-02-12T11:53:16.721Z,56.50
2019-02-12T11:55:45.900Z,56.50
2019-02-12T11:58:15.129Z,56.60
2019-02-12T12:01:03.289Z,56.60
2019-02-12T12:03:32.565Z,56.50
2019-02-12T12:06:01.729Z,55.20
2019-02-12T12:08:30.883Z,53.10
2019-02-12T12:11:00.055Z,51.20
2019-02-12T12:13:29.217Z,50.80
2019-02-12T12:15:58.451Z,48.10
2019-02-12T12:18:27.828Z,48.10
2019-02-12T12:20:57.116Z,47.60
2019-02-12T12:23:26.304Z,47.80
2019-02-12T12:25:55.445Z,48.60
2019-02-12T12:28:24.714Z,49.80
2019-02-12T12:30:53.935Z,50.20
2019-02-12T12:33:23.094Z,51.80
2019-02-12T12:35:52.253Z,52.90
2019-02-12T12:38:21.560Z,54.20
2019-02-12T12:40:50.733Z,54.60
2019-02-12T12:43:19.929Z,54.90
2019-02-12T12:45:49.231Z,55.20
2019-02-12T12:48:18.590Z,55.40
2019-02-12T12:50:47.751Z,55.30
2019-02-12T12:53:16.976Z,55.20
2019-02-12T12:55:46.228Z,54.70
2019-02-12T12:58:15.462Z,55.10
2019-02-12T13:00:44.711Z,55.20
2019-02-12T13:03:13.888Z,55.40
2019-02-12T13:05:43.162Z,55.00
2019-02-12T13:08:12.288Z,53.70
2019-02-12T13:10:41.452Z,54.00
2019-02-12T13:13:29.660Z,52.70
2019-02-12T13:15:58.907Z,51.80
2019-02-12T13:18:28.068Z,50.70
2019-02-12T13:20:57.267Z,51.10
2019-02-12T13:23:26.489Z,51.20
2019-02-12T13:25:55.666Z,51.40
2019-02-12T13:28:24.835Z,51.70
2019-02-12T13:30:54.109Z,52.00
2019-02-12T13:33:23.266Z,51.50
2019-02-12T13:35:52.432Z,50.30
2019-02-12T13:38:21.629Z,48.70
2019-02-12T13:40:51.336Z,47.90
2019-02-12T13:43:20.494Z,48.50
2019-02-12T13:45:49.782Z,49.80
2019-02-12T13:48:18.921Z,50.30
2019-02-12T13:50:48.161Z,50.90
2019-02-12T13:53:17.728Z,51.30
2019-02-12T13:55:46.931Z,51.70
2019-02-12T13:58:16.104Z,51.40
2019-02-12T14:00:45.501Z,51.50
2019-02-12T14:03:22.280Z,52.00
2019-02-12T14:05:45.858Z,51.80
2019-02-12T14:08:15.295Z,51.90
2019-02-12T14:10:44.557Z,51.80
2019-02-12T14:13:13.757Z,51.90
2019-02-12T14:15:42.908Z,52.00
2019-02-12T14:18:12.172Z,51.90
2019-02-12T14:20:41.417Z,51.60
2019-02-12T14:23:10.586Z,52.50
2019-02-12T14:25:39.749Z,52.40
2019-02-12T14:28:08.920Z,52.70
2019-02-12T14:30:38.096Z,52.70
2019-02-12T14:33:07.573Z,53.30
2019-02-12T14:35:36.842Z,53.00
2019-02-12T14:38:06.052Z,53.20
2019-02-12T14:40:35.208Z,53.50
2019-02-12T14:43:04.344Z,53.60
2019-02-12T14:45:33.596Z,53.60
2019-02-12T14:48:02.902Z,53.30
2019-02-12T14:50:32.068Z,53.60
2019-02-12T14:53:01.250Z,53.40
2019-02-12T14:55:33.802Z,53.00
2019-02-12T14:58:01.421Z,52.90
2019-02-12T15:00:30.800Z,52.50
2019-02-12T15:03:00.284Z,52.50
2019-02-12T15:05:29.680Z,52.40
2019-02-12T15:07:58.823Z,51.80
2019-02-12T15:10:28.196Z,51.90
2019-02-12T15:12:57.374Z,51.40
2019-02-12T15:15:26.852Z,50.60
2019-02-12T15:17:56.007Z,51.00
2019-02-12T15:20:25.228Z,51.00
2019-02-12T15:22:54.458Z,51.20
2019-02-12T15:25:23.649Z,51.50
2019-02-12T15:27:52.813Z,52.00
2019-02-12T15:30:22.147Z,52.60
2019-02-12T15:32:51.319Z,52.20
2019-02-12T15:35:20.492Z,52.20
2019-02-12T15:37:49.703Z,52.30
2019-02-12T15:40:18.903Z,52.60
2019-02-12T15:42:48.143Z,53.00
2019-02-12T15:45:17.737Z,53.20
2019-02-12T15:47:47.123Z,53.50
2019-02-12T15:50:16.622Z,53.50
2019-02-12T15:52:45.770Z,53.60
2019-02-12T15:55:15.253Z,53.90
2019-02-12T15:57:45.938Z,54.20
2019-02-12T16:00:18.627Z,54.20
2019-02-12T16:02:47.328Z,54.40
2019-02-12T16:05:16.720Z,54.80
2019-02-12T16:07:47.470Z,56.70
2019-02-12T16:10:19.396Z,56.20
2019-02-12T18:03:44.349Z,61.60
2019-02-12T18:06:13.581Z,61.90
2019-02-12T18:08:45.018Z,62.10
2019-02-12T18:11:14.320Z,62.60
2019-02-12T18:13:43.568Z,62.40
2019-02-12T18:16:12.777Z,62.90
2019-02-12T18:18:41.936Z,63.20
2019-02-12T18:21:11.208Z,63.80
2019-02-12T18:23:40.505Z,64.00
2019-02-12T18:26:09.832Z,64.20
2019-02-12T18:28:38.984Z,64.10
2019-02-12T18:31:08.229Z,64.90
2019-02-12T18:33:37.392Z,65.00
2019-02-12T18:36:06.696Z,65.30
2019-02-12T18:38:35.867Z,65.10
2019-02-12T18:41:06.235Z,64.90
2019-02-12T18:43:35.472Z,65.60
2019-02-12T18:46:05.140Z,65.60
2019-02-12T18:48:34.472Z,65.90
2019-02-12T18:51:03.901Z,65.80
2019-02-12T18:53:33.212Z,66.30
2019-02-12T18:56:04.396Z,67.70
2019-02-12T18:58:33.554Z,67.50
2019-02-12T19:01:02.884Z,66.40
2019-02-12T19:03:32.192Z,66.50
2019-02-12T19:06:01.557Z,66.40
2019-02-12T19:08:30.900Z,66.80
2019-02-12T19:11:00.189Z,66.90
2019-02-12T19:13:29.520Z,67.20
2019-02-12T19:15:58.684Z,67.30
2019-02-12T19:18:28.545Z,67.50
2019-02-12T19:20:57.712Z,68.00
2019-02-12T19:23:27.022Z,67.80
2019-02-12T19:25:56.383Z,66.60
2019-02-12T19:28:26.721Z,66.90
2019-02-12T19:30:56.012Z,66.80
2019-02-12T19:33:25.635Z,66.70
2019-02-12T19:35:54.797Z,67.20
2019-02-12T19:38:24.501Z,67.10
2019-02-12T19:40:53.675Z,67.30
2019-02-12T19:43:22.908Z,67.20
2019-02-12T19:45:52.139Z,66.90
2019-02-12T19:48:21.516Z,66.20
2019-02-12T19:50:50.770Z,67.10
2019-02-12T19:53:21.080Z,67.10
2019-02-12T19:55:50.429Z,67.40
2019-02-12T19:58:19.648Z,66.90
2019-02-12T20:00:48.918Z,67.30
2019-02-12T20:03:19.503Z,67.90
2019-02-12T20:05:48.772Z,67.60
2019-02-12T20:08:18.060Z,67.20
2019-02-12T20:10:47.510Z,67.60
2019-02-12T20:13:16.728Z,67.70
2019-02-12T20:15:46.061Z,68.20
2019-02-12T20:18:15.342Z,68.70
2019-02-12T20:20:44.675Z,69.10
2019-02-12T20:23:13.836Z,69.40
2019-02-12T20:25:43.111Z,69.70
2019-02-12T20:28:12.491Z,69.70
2019-02-12T20:30:42.164Z,69.50
2019-02-12T20:33:11.921Z,69.50
2019-02-12T20:35:41.709Z,69.10
2019-02-12T20:38:10.908Z,69.10
2019-02-12T20:40:40.739Z,69.10
2019-02-12T20:43:09.978Z,69.00
2019-02-12T20:45:43.519Z,68.80
2019-02-12T20:48:12.666Z,68.60
2019-02-12T20:50:43.769Z,68.90
2019-02-12T20:53:13.240Z,69.50
2019-02-12T20:55:42.780Z,69.40
2019-02-12T20:58:11.918Z,69.00
2019-02-12T21:00:41.989Z,68.50
2019-02-12T21:03:13.142Z,69.00
2019-02-12T21:05:42.858Z,69.00
2019-02-12T21:08:12.001Z,68.90
2019-02-12T21:13:15.741Z,68.70
2019-02-12T21:15:45.003Z,68.70
2019-02-12T21:18:14.156Z,68.80
2019-02-12T21:20:43.464Z,68.70
2019-02-12T21:23:12.749Z,69.30
2019-02-12T21:25:41.912Z,69.30
2019-02-12T21:28:11.263Z,68.80
2019-02-12T21:30:40.400Z,69.30
2019-02-12T21:33:09.836Z,68.30
2019-02-12T21:35:38.968Z,68.60
2019-02-12T21:38:11.393Z,68.60
2019-02-12T21:40:40.537Z,68.70
2019-02-12T21:43:09.928Z,69.20
2019-02-12T21:45:39.068Z,69.50
2019-02-12T21:48:08.263Z,69.80
2019-02-12T21:50:37.495Z,70.30
2019-02-12T21:53:06.709Z,70.80
2019-02-12T21:55:35.862Z,71.40
2019-02-12T21:58:05.390Z,70.80
2019-02-12T22:00:34.761Z,71.30
2019-02-12T22:03:04.737Z,71.00
2019-02-12T22:05:33.910Z,70.90
2019-02-12T22:08:04.348Z,70.40
2019-02-12T22:10:33.520Z,70.50
2019-02-12T22:13:02.977Z,71.00
2019-02-12T22:15:32.147Z,71.10
2019-02-12T22:18:01.286Z,71.10
2019-02-12T22:20:30.555Z,71.00
2019-02-12T22:23:01.451Z,70.70
2019-02-12T22:25:30.736Z,70.70
2019-02-12T22:27:59.944Z,70.50
2019-02-12T22:30:29.156Z,69.70
2019-02-12T22:32:58.400Z,68.60
2019-02-12T22:35:27.677Z,68.90
2019-02-12T22:37:56.816Z,69.30
2019-02-12T22:40:26.053Z,69.50
2019-02-12T22:42:55.216Z,69.70
2019-02-12T22:45:24.568Z,70.10
2019-02-12T22:47:53.766Z,70.30
2019-02-12T22:50:22.950Z,70.70
2019-02-12T22:52:52.233Z,70.90
2019-02-12T22:55:21.437Z,71.40
2019-02-12T22:57:50.579Z,71.50
2019-02-12T23:00:54.987Z,72.60
2019-02-12T23:03:24.585Z,72.00
2019-02-12T23:05:53.811Z,72.20
2019-02-12T23:08:23.118Z,71.70
2019-02-12T23:10:52.364Z,71.80
2019-02-12T23:13:21.505Z,71.20
2019-02-12T23:15:50.867Z,71.00
2019-02-12T23:18:20.000Z,70.90
2019-02-12T23:20:49.275Z,71.10
2019-02-12T23:23:18.450Z,70.90
2019-02-12T23:25:47.690Z,70.90
2019-02-12T23:28:17.218Z,71.30
2019-02-12T23:30:46.449Z,72.10
2019-02-12T23:33:15.641Z,71.30
2019-02-12T23:35:44.805Z,71.80
2019-02-12T23:38:13.967Z,72.10
2019-02-12T23:40:43.121Z,71.40
2019-02-12T23:43:12.289Z,71.20
2019-02-12T23:45:41.445Z,71.10
2019-02-12T23:48:10.691Z,71.50
2019-02-12T23:50:39.820Z,72.20
2019-02-12T23:53:08.978Z,73.10
2019-02-12T23:55:38.184Z,73.00
2019-02-12T23:58:07.350Z,72.80
